Edam, Canada
Current Conditions -  °F | °C
As of 4:24 AM on Friday 21 Nov 2014 (Local Time) from CYQW Reporting Station
Overcast Overcast  
Wind Chill: 25°   Ceiling: 6500
Heat Index: 30°   Visibility: 9mi
Dew Point: 28°   Wind: 5mph
Humidity: 93%   Direction: 210°SSW
Pressure: 29.47"   Gusts: NA
Location:  53.18°N, 108.77°W
Report Text: CYQW 211024Z AUTO 21004KT 9SM BKN065 OVC110 M01/M02 A2947 RMK SLP005
Loading
Personal Weather Stations






























Interactive Weather Map New forecast layout! Learn more

10-Day Weather Forecast

Advertisements
Track Severe Weather on mobile